createdAt,value
2023-03-22T00:00:41.428Z,9.12
2023-03-22T00:01:41.189Z,8.61
2023-03-22T00:02:41.226Z,9.03
2023-03-22T00:03:41.288Z,8.48
2023-03-22T00:04:41.229Z,9.42
2023-03-22T00:05:41.212Z,8.13
2023-03-22T00:06:41.210Z,8.79
2023-03-22T00:07:41.270Z,7.94
2023-03-22T00:08:42.679Z,8.60
2023-03-22T00:09:41.240Z,8.28
2023-03-22T00:11:41.243Z,8.70
2023-03-22T00:12:41.214Z,8.85
2023-03-22T00:13:41.276Z,8.96
2023-03-22T00:14:41.288Z,8.37
2023-03-22T00:15:41.302Z,8.23
2023-03-22T00:16:41.261Z,8.18
2023-03-22T00:17:41.264Z,8.74
2023-03-22T00:18:41.270Z,8.93
2023-03-22T00:19:41.305Z,8.67
2023-03-22T00:20:41.618Z,8.49
2023-03-22T00:21:41.231Z,8.19
2023-03-22T00:22:41.308Z,7.94
2023-03-22T00:23:41.236Z,8.13
2023-03-22T00:25:41.294Z,8.50
2023-03-22T00:26:41.287Z,8.35
2023-03-22T00:28:41.244Z,8.20
2023-03-22T00:29:42.610Z,8.54
2023-03-22T00:30:41.336Z,9.07
2023-03-22T00:31:41.396Z,8.52
2023-03-22T00:32:41.264Z,8.30
2023-03-22T00:34:41.271Z,7.54
2023-03-22T00:35:41.321Z,7.59
2023-03-22T00:36:41.320Z,7.85
2023-03-22T00:37:41.347Z,7.82
2023-03-22T00:38:43.821Z,8.45
2023-03-22T00:39:41.281Z,8.11
2023-03-22T00:41:41.313Z,7.47
2023-03-22T00:42:41.369Z,8.91
2023-03-22T00:43:41.302Z,7.99
2023-03-22T00:44:41.295Z,8.41
2023-03-22T00:46:41.292Z,8.26
2023-03-22T00:47:41.451Z,8.79
2023-03-22T00:48:41.356Z,8.02
2023-03-22T00:49:41.329Z,8.32
2023-03-22T00:50:41.290Z,7.07
2023-03-22T00:51:41.302Z,7.49
2023-03-22T00:52:41.353Z,8.33
2023-03-22T00:53:43.321Z,7.10
2023-03-22T00:54:41.352Z,7.72
2023-03-22T00:55:41.393Z,7.46
2023-03-22T00:56:41.350Z,7.09
2023-03-22T00:57:41.369Z,7.15
2023-03-22T00:58:41.386Z,6.66
2023-03-22T00:59:41.492Z,6.69
2023-03-22T01:00:41.779Z,6.47
2023-03-22T01:01:41.378Z,6.19
2023-03-22T01:02:41.380Z,6.29
2023-03-22T01:03:41.449Z,5.98
2023-03-22T01:04:41.332Z,6.18
2023-03-22T01:05:41.390Z,6.48
2023-03-22T01:06:41.388Z,6.27
2023-03-22T01:07:41.359Z,5.94
2023-03-22T01:08:41.407Z,5.69
2023-03-22T01:09:41.390Z,5.84
2023-03-22T01:11:41.407Z,6.50
2023-03-22T01:12:41.404Z,6.01
2023-03-22T01:13:41.436Z,5.44
2023-03-22T01:14:41.398Z,5.51
2023-03-22T01:15:41.406Z,4.79
2023-03-22T01:16:41.468Z,4.92
2023-03-22T01:17:41.372Z,4.63
2023-03-22T01:18:41.402Z,4.78
2023-03-22T01:19:41.369Z,4.50
2023-03-22T01:21:41.433Z,5.18
2023-03-22T01:24:42.526Z,5.19
2023-03-22T01:25:41.400Z,4.76
2023-03-22T01:26:41.439Z,4.46
2023-03-22T01:30:41.905Z,4.50
2023-03-22T01:32:41.448Z,4.01
2023-03-22T01:33:41.448Z,4.49
2023-03-22T01:34:41.451Z,4.52
2023-03-22T01:35:41.440Z,4.42
2023-03-22T01:36:41.449Z,4.40
2023-03-22T01:37:41.554Z,4.56
2023-03-22T01:38:41.418Z,4.20
2023-03-22T01:39:41.470Z,4.22
2023-03-22T01:40:41.915Z,5.01
2023-03-22T01:41:41.468Z,4.49
2023-03-22T01:42:41.483Z,4.49
2023-03-22T01:44:41.499Z,5.23
2023-03-22T01:45:41.451Z,4.40
2023-03-22T01:46:41.584Z,4.31
2023-03-22T01:48:41.537Z,4.19
2023-03-22T01:49:41.505Z,4.23
2023-03-22T01:50:41.764Z,5.11
2023-03-22T01:52:41.465Z,4.67
2023-03-22T01:53:41.458Z,4.22
2023-03-22T01:54:41.550Z,4.81
2023-03-22T01:56:41.473Z,5.12
2023-03-22T01:57:41.481Z,4.92
2023-03-22T01:58:41.520Z,4.59
2023-03-22T01:59:41.513Z,4.45
2023-03-22T02:00:41.644Z,3.87
2023-03-22T02:01:41.581Z,4.84
2023-03-22T02:02:41.566Z,4.82
2023-03-22T02:03:41.543Z,4.65
2023-03-22T02:04:41.537Z,4.89
2023-03-22T02:05:41.510Z,5.16
2023-03-22T02:06:41.532Z,4.82
2023-03-22T02:07:41.511Z,4.21
2023-03-22T02:08:41.499Z,4.50
2023-03-22T02:09:41.573Z,4.70
2023-03-22T02:10:41.559Z,4.67
2023-03-22T02:11:41.568Z,5.57
2023-03-22T02:12:41.569Z,4.72
2023-03-22T02:13:41.510Z,5.18
2023-03-22T02:14:41.553Z,4.30
2023-03-22T02:15:41.530Z,5.01
2023-03-22T02:16:41.509Z,4.84
2023-03-22T02:19:41.560Z,4.74
2023-03-22T02:20:41.838Z,5.35
2023-03-22T02:21:41.585Z,4.94
2023-03-22T02:22:41.577Z,4.92
2023-03-22T02:24:43.912Z,5.41
2023-03-22T02:26:41.632Z,5.39
2023-03-22T02:27:41.573Z,5.56
2023-03-22T02:28:41.595Z,5.41
2023-03-22T02:29:41.595Z,5.83
2023-03-22T02:30:41.626Z,6.02
2023-03-22T02:31:41.597Z,5.62
2023-03-22T02:32:41.592Z,5.19
2023-03-22T02:34:41.569Z,5.56
2023-03-22T02:35:41.631Z,6.57
2023-03-22T02:36:41.576Z,5.99
2023-03-22T02:37:41.599Z,5.65
2023-03-22T02:38:41.652Z,5.84
2023-03-22T02:39:41.612Z,5.48
2023-03-22T02:40:41.757Z,5.93
2023-03-22T02:41:41.643Z,5.42
2023-03-22T02:42:41.616Z,7.02
2023-03-22T02:43:41.688Z,6.36
2023-03-22T02:44:41.635Z,6.71
2023-03-22T02:45:41.635Z,6.85
2023-03-22T02:46:41.699Z,6.75
2023-03-22T02:47:41.682Z,6.29
2023-03-22T02:48:41.674Z,7.13
2023-03-22T02:50:41.654Z,6.14
2023-03-22T02:51:41.604Z,5.98
2023-03-22T02:52:41.653Z,6.24
2023-03-22T02:53:41.653Z,5.74
2023-03-22T02:55:41.666Z,5.55
2023-03-22T02:56:41.691Z,6.29
2023-03-22T02:57:41.617Z,6.14
2023-03-22T02:58:41.701Z,5.89
2023-03-22T03:00:42.146Z,6.67
2023-03-22T03:02:41.666Z,6.07
2023-03-22T03:03:41.724Z,6.79
2023-03-22T03:04:41.669Z,6.58
2023-03-22T03:05:41.686Z,6.82
2023-03-22T03:06:41.662Z,6.83
2023-03-22T03:07:41.678Z,5.94
2023-03-22T03:09:41.699Z,6.86
2023-03-22T03:11:41.686Z,7.81
2023-03-22T03:13:41.734Z,7.33
2023-03-22T03:14:41.673Z,7.68
2023-03-22T03:15:41.713Z,7.54
2023-03-22T03:16:41.782Z,7.04
2023-03-22T03:17:41.709Z,7.13
2023-03-22T03:18:41.711Z,6.80
2023-03-22T03:19:41.676Z,7.26
2023-03-22T03:20:41.948Z,7.42
2023-03-22T03:21:41.712Z,6.99
2023-03-22T03:23:41.762Z,6.47
2023-03-22T03:24:41.727Z,7.19
2023-03-22T03:25:41.726Z,7.59
2023-03-22T03:26:41.730Z,6.88
2023-03-22T03:27:41.694Z,7.84
2023-03-22T03:28:41.771Z,7.85
2023-03-22T03:29:41.729Z,7.12
2023-03-22T03:30:41.748Z,6.66
2023-03-22T03:31:41.752Z,7.27
2023-03-22T03:32:41.742Z,6.83
2023-03-22T03:33:41.777Z,7.93
2023-03-22T03:35:41.782Z,7.06
2023-03-22T03:36:41.772Z,7.09
2023-03-22T03:37:41.752Z,7.04
2023-03-22T03:38:41.743Z,7.83
2023-03-22T03:39:41.754Z,7.60
2023-03-22T03:40:41.960Z,6.94
2023-03-22T03:41:41.800Z,6.69
2023-03-22T03:43:41.766Z,6.69
2023-03-22T03:44:41.782Z,7.10
2023-03-22T03:46:41.750Z,7.53
2023-03-22T03:47:41.756Z,8.05
2023-03-22T03:48:41.760Z,7.59
2023-03-22T03:51:41.841Z,7.97
2023-03-22T03:53:41.802Z,6.78
2023-03-22T03:54:41.802Z,7.20
2023-03-22T03:55:41.774Z,6.65
2023-03-22T03:56:41.767Z,6.48
2023-03-22T03:57:41.764Z,6.80
2023-03-22T03:58:41.824Z,6.51
2023-03-22T03:59:41.797Z,6.69
2023-03-22T04:00:42.074Z,6.22
2023-03-22T04:01:41.792Z,6.89
2023-03-22T04:02:41.896Z,6.75
2023-03-22T04:03:41.795Z,6.98
2023-03-22T04:04:41.878Z,6.28
2023-03-22T04:05:41.823Z,6.91
2023-03-22T04:06:41.832Z,6.55
2023-03-22T04:07:41.799Z,7.12
2023-03-22T04:08:41.814Z,6.30
2023-03-22T04:09:41.881Z,6.45
2023-03-22T04:10:41.900Z,6.62
2023-03-22T04:11:41.856Z,6.97
2023-03-22T04:13:41.850Z,5.67
2023-03-22T04:14:41.817Z,6.82
2023-03-22T04:15:41.825Z,6.63
2023-03-22T04:16:41.848Z,6.31
2023-03-22T04:17:41.862Z,6.85
2023-03-22T04:18:41.847Z,6.17
2023-03-22T04:19:41.952Z,6.47
2023-03-22T04:20:42.084Z,6.55
2023-03-22T04:21:41.836Z,5.92
2023-03-22T04:22:41.845Z,6.57
2023-03-22T04:23:41.879Z,6.96
2023-03-22T04:25:41.861Z,6.64
2023-03-22T04:26:41.877Z,6.20
2023-03-22T04:27:41.922Z,6.33
2023-03-22T04:28:41.839Z,6.63
2023-03-22T04:29:41.906Z,6.28
2023-03-22T04:30:42.291Z,7.01
2023-03-22T04:31:41.885Z,5.83
2023-03-22T04:32:41.882Z,6.68
2023-03-22T04:33:41.859Z,6.52
2023-03-22T04:34:41.919Z,6.86
2023-03-22T04:35:41.923Z,6.30
2023-03-22T04:36:41.910Z,6.16
2023-03-22T04:37:41.891Z,6.39
2023-03-22T04:38:41.913Z,6.62
2023-03-22T04:39:41.910Z,6.14
2023-03-22T04:40:42.326Z,6.27
2023-03-22T04:41:41.872Z,5.87
2023-03-22T04:42:41.950Z,6.79
2023-03-22T04:44:41.995Z,6.09
2023-03-22T04:45:41.956Z,5.69
2023-03-22T04:46:41.956Z,5.79
2023-03-22T04:47:41.899Z,5.04
2023-03-22T04:48:41.892Z,6.18
2023-03-22T04:49:41.888Z,5.71
2023-03-22T04:50:42.164Z,5.38
2023-03-22T04:51:41.926Z,5.62
2023-03-22T04:52:41.910Z,5.82
2023-03-22T04:53:41.941Z,5.74
2023-03-22T04:56:41.965Z,5.34
2023-03-22T04:57:41.955Z,5.74
2023-03-22T04:58:41.916Z,6.01
2023-03-22T05:03:41.943Z,6.03
2023-03-22T05:04:41.936Z,5.88
2023-03-22T05:05:41.936Z,6.27
2023-03-22T05:06:41.996Z,5.81
2023-03-22T05:07:42.020Z,6.10
2023-03-22T05:08:41.951Z,5.59
2023-03-22T05:09:41.948Z,5.80
2023-03-22T05:10:42.251Z,6.01
2023-03-22T05:11:41.961Z,5.52
2023-03-22T05:13:41.959Z,6.07
2023-03-22T05:14:42.007Z,5.65
2023-03-22T05:15:42.071Z,5.75
2023-03-22T05:17:42.009Z,5.37
2023-03-22T05:18:41.986Z,5.99
2023-03-22T05:19:42.016Z,5.81
2023-03-22T05:20:42.422Z,5.30
2023-03-22T05:21:42.010Z,5.83
2023-03-22T05:23:42.022Z,6.10
2023-03-22T05:24:42.028Z,6.09
2023-03-22T05:25:41.984Z,6.87
2023-03-22T05:26:42.052Z,6.08
2023-03-22T05:27:42.066Z,6.57
2023-03-22T05:28:42.039Z,6.34
2023-03-22T05:29:42.029Z,6.96
2023-03-22T05:30:42.007Z,6.66
2023-03-22T05:31:42.017Z,6.11
2023-03-22T05:32:42.005Z,6.20
2023-03-22T05:33:42.067Z,6.66
2023-03-22T05:34:42.059Z,6.36
2023-03-22T05:35:42.042Z,6.80
2023-03-22T05:36:42.032Z,6.49
2023-03-22T05:37:42.031Z,6.46
2023-03-22T05:38:42.034Z,7.22
2023-03-22T05:39:42.032Z,7.73
2023-03-22T05:40:42.178Z,7.37
2023-03-22T05:41:42.059Z,7.51
2023-03-22T05:42:42.027Z,7.16
2023-03-22T05:43:42.078Z,7.07
2023-03-22T05:45:42.112Z,7.22
2023-03-22T05:46:42.115Z,7.29
2023-03-22T05:47:42.071Z,7.88
2023-03-22T05:48:42.086Z,7.63
2023-03-22T05:49:42.125Z,7.62
2023-03-22T05:50:42.048Z,6.83
2023-03-22T05:51:42.129Z,8.00
2023-03-22T05:53:42.064Z,7.34
2023-03-22T05:54:42.132Z,7.54
2023-03-22T05:56:42.056Z,8.14
2023-03-22T05:57:42.081Z,7.31
2023-03-22T05:58:42.071Z,8.56
2023-03-22T05:59:42.072Z,7.61
2023-03-22T06:00:42.290Z,7.95
2023-03-22T06:01:42.148Z,8.21
2023-03-22T06:02:42.189Z,7.50
2023-03-22T06:03:42.088Z,7.13
2023-03-22T06:04:42.127Z,6.64
2023-03-22T06:05:42.217Z,6.16
2023-03-22T06:06:42.092Z,6.07
2023-03-22T06:07:42.107Z,6.31
2023-03-22T06:08:42.135Z,5.95
2023-03-22T06:09:42.101Z,5.25
2023-03-22T06:10:42.595Z,6.38
2023-03-22T06:11:42.119Z,5.97
2023-03-22T06:12:42.160Z,6.36
2023-03-22T06:13:42.097Z,7.02
2023-03-22T06:14:42.188Z,6.44
2023-03-22T06:15:42.156Z,6.81
2023-03-22T06:16:42.172Z,6.52
2023-03-22T06:17:42.111Z,6.58
2023-03-22T06:18:42.111Z,6.81
2023-03-22T06:19:42.202Z,8.07
2023-03-22T06:20:42.473Z,6.49
2023-03-22T06:21:42.127Z,6.84
2023-03-22T06:22:42.132Z,6.76
2023-03-22T06:23:42.187Z,7.05
2023-03-22T06:24:42.222Z,6.50
2023-03-22T06:25:42.143Z,6.63
2023-03-22T06:26:42.139Z,6.28
2023-03-22T06:27:42.179Z,6.23
2023-03-22T06:28:42.138Z,6.93
2023-03-22T06:29:42.237Z,7.25
2023-03-22T06:30:42.481Z,7.11
2023-03-22T06:31:42.158Z,7.15
2023-03-22T06:32:42.159Z,6.75
2023-03-22T06:33:42.200Z,7.32
2023-03-22T06:34:42.183Z,7.13
2023-03-22T06:35:42.195Z,6.95
2023-03-22T06:36:42.202Z,7.06
2023-03-22T06:37:42.495Z,6.81
2023-03-22T06:38:42.172Z,7.61
2023-03-22T06:39:42.202Z,7.47
2023-03-22T06:40:42.505Z,7.72
2023-03-22T06:41:42.183Z,7.72
2023-03-22T06:42:42.208Z,6.51
2023-03-22T06:43:42.201Z,6.45
2023-03-22T06:44:42.228Z,6.22
2023-03-22T06:45:42.448Z,6.25
2023-03-22T06:46:42.190Z,6.65
2023-03-22T06:47:42.243Z,6.41
2023-03-22T06:48:42.194Z,6.33
2023-03-22T06:49:42.235Z,6.65
2023-03-22T06:50:44.204Z,5.86
2023-03-22T06:51:42.232Z,7.19
2023-03-22T06:52:42.254Z,5.64
2023-03-22T06:53:42.249Z,6.11
2023-03-22T06:54:42.258Z,6.06
2023-03-22T06:55:42.254Z,5.84
2023-03-22T06:56:42.219Z,6.49
2023-03-22T06:57:42.239Z,6.68
2023-03-22T06:58:42.216Z,5.70
2023-03-22T06:59:42.243Z,6.05
2023-03-22T07:00:42.505Z,6.11
2023-03-22T07:01:42.320Z,5.79
2023-03-22T07:02:42.268Z,6.23
2023-03-22T07:03:42.270Z,6.69
2023-03-22T07:04:42.357Z,6.35
2023-03-22T07:05:42.238Z,5.82
2023-03-22T07:06:42.240Z,5.68
2023-03-22T07:07:42.317Z,5.93
2023-03-22T07:08:42.245Z,5.44
2023-03-22T07:09:42.258Z,6.23
2023-03-22T07:10:42.406Z,5.82
2023-03-22T07:11:42.325Z,5.98
2023-03-22T07:12:42.267Z,6.14
2023-03-22T07:13:42.302Z,5.76
2023-03-22T07:15:42.300Z,6.21
2023-03-22T07:16:42.266Z,5.63
2023-03-22T07:17:42.307Z,6.52
2023-03-22T07:18:42.266Z,5.78
2023-03-22T07:19:42.310Z,6.36
2023-03-22T07:20:42.715Z,6.40
2023-03-22T07:21:42.283Z,5.80
2023-03-22T07:22:42.277Z,5.66
2023-03-22T07:23:42.288Z,6.17
2023-03-22T07:24:55.721Z,6.27
2023-03-22T07:25:42.284Z,6.02
2023-03-22T07:26:42.331Z,6.02
2023-03-22T07:27:42.304Z,5.58
2023-03-22T07:28:42.332Z,6.10
2023-03-22T07:29:42.306Z,6.23
2023-03-22T07:30:42.456Z,6.56
2023-03-22T07:31:42.335Z,6.97
2023-03-22T07:32:42.319Z,6.25
2023-03-22T07:33:42.355Z,7.09
2023-03-22T07:34:42.312Z,6.40
2023-03-22T07:35:42.335Z,5.48
2023-03-22T07:36:42.358Z,6.30
2023-03-22T07:37:42.368Z,5.33
2023-03-22T07:38:42.361Z,5.97
2023-03-22T07:39:42.379Z,5.71
2023-03-22T07:40:42.435Z,6.72
2023-03-22T07:41:42.406Z,6.02
2023-03-22T07:42:42.676Z,5.69
2023-03-22T07:43:53.997Z,5.74
2023-03-22T07:44:42.381Z,6.28
2023-03-22T07:45:42.345Z,5.38
2023-03-22T07:46:42.412Z,5.90
2023-03-22T07:47:42.386Z,5.57
2023-03-22T07:48:42.346Z,5.17
2023-03-22T07:49:42.394Z,5.60
2023-03-22T07:50:42.355Z,5.19
2023-03-22T07:51:42.380Z,5.63
2023-03-22T07:52:42.370Z,4.97
2023-03-22T07:53:42.376Z,5.49
2023-03-22T07:54:42.481Z,5.39
2023-03-22T07:55:42.420Z,4.96
2023-03-22T07:56:42.384Z,5.00
2023-03-22T07:57:42.387Z,5.84
2023-03-22T07:58:42.466Z,5.18
2023-03-22T07:59:42.378Z,4.83
2023-03-22T08:00:42.433Z,5.13
2023-03-22T08:01:42.508Z,6.05
2023-03-22T08:02:42.441Z,5.60
2023-03-22T08:03:42.393Z,5.45
2023-03-22T08:04:42.448Z,5.30
2023-03-22T08:05:42.855Z,5.33
2023-03-22T08:06:42.393Z,4.12
2023-03-22T08:08:42.449Z,5.28
2023-03-22T08:09:42.448Z,4.74
2023-03-22T08:10:42.470Z,5.31
2023-03-22T08:11:42.462Z,4.83
2023-03-22T08:12:42.464Z,4.31
2023-03-22T08:13:42.456Z,4.54
2023-03-22T08:14:42.502Z,5.45
2023-03-22T08:15:42.475Z,4.67
2023-03-22T08:16:42.592Z,4.61
2023-03-22T08:17:42.464Z,5.01
2023-03-22T08:18:44.325Z,5.07
2023-03-22T08:19:42.449Z,4.95
2023-03-22T08:20:42.760Z,5.68
2023-03-22T08:21:42.519Z,5.75
2023-03-22T08:22:42.484Z,5.54
2023-03-22T08:23:42.626Z,5.06
2023-03-22T08:24:42.501Z,5.60
2023-03-22T08:25:42.483Z,4.44
2023-03-22T08:26:42.529Z,5.36
2023-03-22T08:27:42.480Z,5.14
2023-03-22T08:28:42.464Z,4.98
2023-03-22T08:29:42.501Z,5.20
2023-03-22T08:30:42.505Z,5.40
2023-03-22T08:31:42.507Z,5.04
2023-03-22T08:32:42.472Z,5.01
2023-03-22T08:33:42.465Z,5.29
2023-03-22T08:34:42.506Z,4.73
2023-03-22T08:35:42.861Z,4.94
2023-03-22T08:36:42.478Z,5.04
2023-03-22T08:37:42.502Z,4.81
2023-03-22T08:38:42.634Z,4.81
2023-03-22T08:39:42.568Z,4.70
2023-03-22T08:40:42.592Z,4.33
2023-03-22T08:41:42.528Z,4.58
2023-03-22T08:42:42.531Z,5.06
2023-03-22T08:43:42.539Z,5.79
2023-03-22T08:44:42.518Z,5.27
2023-03-22T08:45:43.077Z,4.94
2023-03-22T08:46:42.540Z,4.67
2023-03-22T08:47:42.556Z,4.96
2023-03-22T08:48:42.518Z,5.16
2023-03-22T08:49:42.581Z,5.11
2023-03-22T08:50:42.529Z,5.32
2023-03-22T08:51:42.559Z,4.61
2023-03-22T08:52:42.523Z,4.82
2023-03-22T08:53:42.574Z,5.32
2023-03-22T08:54:42.580Z,5.40
2023-03-22T08:55:42.574Z,4.65
2023-03-22T08:56:42.541Z,4.75
2023-03-22T08:57:42.585Z,4.44
2023-03-22T08:58:42.577Z,5.07
2023-03-22T08:59:42.602Z,4.62
2023-03-22T09:00:49.142Z,4.87
2023-03-22T09:01:42.661Z,5.00
2023-03-22T09:02:42.617Z,5.04
2023-03-22T09:03:42.549Z,4.74
2023-03-22T09:04:42.655Z,5.30
2023-03-22T09:05:42.600Z,5.39
2023-03-22T09:06:42.602Z,4.81
2023-03-22T09:07:42.620Z,4.74
2023-03-22T09:08:42.604Z,4.99
2023-03-22T09:09:42.627Z,4.99
2023-03-22T09:10:42.616Z,5.11
2023-03-22T09:11:42.616Z,4.16
2023-03-22T09:12:42.656Z,4.91
2023-03-22T09:13:42.581Z,4.84
2023-03-22T09:14:42.627Z,4.60
2023-03-22T09:15:42.945Z,4.68
2023-03-22T09:16:42.593Z,4.81
2023-03-22T09:17:42.633Z,5.58
2023-03-22T09:18:42.643Z,5.23
2023-03-22T09:20:43.161Z,4.92
2023-03-22T09:21:42.669Z,4.43
2023-03-22T09:22:42.647Z,5.14
2023-03-22T09:23:42.651Z,4.97
2023-03-22T09:24:42.620Z,4.99
2023-03-22T09:25:42.683Z,4.73
2023-03-22T09:26:42.629Z,4.87
2023-03-22T09:27:42.655Z,5.11
2023-03-22T09:28:42.686Z,4.86
2023-03-22T09:29:42.665Z,4.57
2023-03-22T09:30:42.888Z,4.56
2023-03-22T09:31:42.696Z,4.89
2023-03-22T09:32:42.672Z,4.19
2023-03-22T09:33:42.733Z,4.39
2023-03-22T09:34:42.664Z,4.55
2023-03-22T09:35:43.083Z,4.19
2023-03-22T09:36:42.641Z,4.00
2023-03-22T09:37:42.678Z,4.39
2023-03-22T09:38:42.748Z,4.09
2023-03-22T09:39:42.745Z,4.40
2023-03-22T09:40:42.661Z,3.71
2023-03-22T09:41:42.706Z,4.77
2023-03-22T09:42:42.652Z,3.55
2023-03-22T09:43:42.714Z,4.43
2023-03-22T09:44:42.705Z,4.73
2023-03-22T09:45:43.088Z,4.09
2023-03-22T09:46:42.959Z,4.62
2023-03-22T09:47:45.034Z,4.57
2023-03-22T09:48:42.709Z,4.48
2023-03-22T09:49:53.064Z,5.20
2023-03-22T09:50:42.685Z,3.84
2023-03-22T09:51:42.676Z,4.59
2023-03-22T09:52:42.698Z,4.72
2023-03-22T09:53:42.699Z,4.87
2023-03-22T09:54:42.690Z,4.55
2023-03-22T09:55:42.729Z,4.86
2023-03-22T09:56:42.732Z,5.07
2023-03-22T09:57:42.735Z,4.82
2023-03-22T09:58:42.781Z,4.82
2023-03-22T09:59:42.730Z,4.77
2023-03-22T10:00:42.870Z,4.82
2023-03-22T10:01:42.994Z,5.07
2023-03-22T10:02:42.765Z,5.23
2023-03-22T10:03:42.718Z,5.41
2023-03-22T10:04:42.805Z,4.71
2023-03-22T10:05:43.029Z,4.55
2023-03-22T10:06:42.727Z,5.13
2023-03-22T10:07:42.774Z,5.09
2023-03-22T10:08:42.814Z,4.23
2023-03-22T10:09:42.776Z,4.63
2023-03-22T10:10:42.769Z,5.11
2023-03-22T10:11:45.498Z,4.36
2023-03-22T10:12:42.804Z,4.45
2023-03-22T10:13:42.766Z,4.15
2023-03-22T10:14:42.781Z,4.37
2023-03-22T10:15:43.056Z,4.18
2023-03-22T10:16:42.802Z,4.03
2023-03-22T10:17:42.812Z,4.56
2023-03-22T10:18:42.767Z,4.52
2023-03-22T10:19:42.789Z,4.05
2023-03-22T10:20:42.794Z,4.04
2023-03-22T10:21:42.802Z,4.41
2023-03-22T10:22:42.796Z,4.94
2023-03-22T10:23:44.088Z,3.79
2023-03-22T10:24:42.799Z,4.69
2023-03-22T10:25:42.925Z,3.66
2023-03-22T10:26:42.841Z,4.57
2023-03-22T10:27:42.834Z,5.17
2023-03-22T10:28:42.817Z,4.52
2023-03-22T10:29:42.790Z,3.87
2023-03-22T10:30:43.247Z,4.09
2023-03-22T10:31:42.871Z,4.38
2023-03-22T10:32:56.780Z,3.80
2023-03-22T10:33:44.521Z,4.22
2023-03-22T10:34:42.857Z,4.02
2023-03-22T10:35:43.475Z,4.24
2023-03-22T10:36:42.809Z,4.40
2023-03-22T10:37:42.801Z,3.58
2023-03-22T10:38:42.798Z,3.67
2023-03-22T10:39:42.862Z,3.63
2023-03-22T10:40:42.797Z,3.38
2023-03-22T10:41:42.856Z,3.43
2023-03-22T10:42:42.829Z,3.65
2023-03-22T10:43:42.828Z,3.93
2023-03-22T10:44:42.810Z,3.40
2023-03-22T10:45:43.291Z,3.39
2023-03-22T10:46:42.844Z,3.31
2023-03-22T10:47:43.126Z,3.80
2023-03-22T10:48:42.828Z,3.70
2023-03-22T10:49:42.888Z,3.28
2023-03-22T10:50:42.839Z,2.98
2023-03-22T10:51:42.836Z,3.08
2023-03-22T10:52:42.925Z,2.88
2023-03-22T10:53:42.912Z,2.79
2023-03-22T10:54:42.889Z,3.53
2023-03-22T10:55:43.426Z,3.69
2023-03-22T10:56:44.317Z,3.18
2023-03-22T10:57:42.866Z,3.54
2023-03-22T10:58:42.897Z,2.91
2023-03-22T10:59:42.865Z,2.89
2023-03-22T11:00:43.049Z,3.08
2023-03-22T11:01:43.010Z,3.09
2023-03-22T11:02:42.957Z,2.97
2023-03-22T11:03:42.886Z,3.08
2023-03-22T11:04:42.872Z,2.32
2023-03-22T11:05:42.982Z,2.32
2023-03-22T11:06:42.913Z,2.59
2023-03-22T11:07:42.883Z,2.38
2023-03-22T11:09:42.915Z,2.57
2023-03-22T11:10:42.997Z,2.82
2023-03-22T11:11:42.948Z,3.66
2023-03-22T11:12:42.920Z,3.60
2023-03-22T11:13:42.904Z,3.03
2023-03-22T11:14:42.935Z,3.57
2023-03-22T11:15:42.978Z,3.87
2023-03-22T11:16:42.998Z,3.63
2023-03-22T11:17:43.400Z,3.14
2023-03-22T11:18:42.909Z,2.83
2023-03-22T11:19:42.955Z,3.05
2023-03-22T11:20:43.396Z,3.03
2023-03-22T11:22:42.959Z,3.18
2023-03-22T11:23:42.963Z,2.70
2023-03-22T11:24:42.914Z,3.21
2023-03-22T11:25:42.930Z,3.04
2023-03-22T11:27:42.979Z,3.19
2023-03-22T11:28:43.002Z,2.92
2023-03-22T11:29:42.972Z,2.83
2023-03-22T11:30:43.534Z,2.99
2023-03-22T11:31:43.015Z,3.16
2023-03-22T11:32:43.015Z,2.74
2023-03-22T11:33:43.037Z,2.87
2023-03-22T11:34:42.984Z,3.03
2023-03-22T11:35:43.029Z,3.13
2023-03-22T11:36:42.960Z,2.59
2023-03-22T11:37:42.969Z,2.61
2023-03-22T11:38:44.225Z,2.48
2023-03-22T11:39:43.005Z,2.46
2023-03-22T11:40:43.275Z,2.53
2023-03-22T11:41:42.979Z,2.39
2023-03-22T11:42:42.981Z,2.80
2023-03-22T11:43:43.020Z,2.47
2023-03-22T11:44:42.971Z,2.38
2023-03-22T11:45:43.055Z,1.96
2023-03-22T11:46:43.155Z,2.40
2023-03-22T11:47:43.033Z,1.73
2023-03-22T11:48:43.266Z,2.25
2023-03-22T11:49:43.052Z,2.10
2023-03-22T11:50:43.464Z,2.11
2023-03-22T11:51:43.008Z,2.36
2023-03-22T11:52:43.046Z,2.18
2023-03-22T11:53:43.066Z,2.32
2023-03-22T11:54:43.005Z,2.12
2023-03-22T11:55:43.316Z,1.58
2023-03-22T11:56:43.073Z,1.77
2023-03-22T11:57:43.064Z,1.57
2023-03-22T11:58:43.030Z,2.24
2023-03-22T11:59:43.062Z,2.75
2023-03-22T12:00:43.058Z,2.73
2023-03-22T12:01:43.103Z,2.46
2023-03-22T12:02:43.159Z,1.61
2023-03-22T12:03:43.135Z,1.72
2023-03-22T12:04:43.143Z,1.75
2023-03-22T12:05:43.463Z,1.68
2023-03-22T12:06:43.061Z,2.05
2023-03-22T12:07:43.113Z,1.62
2023-03-22T12:08:43.094Z,1.85
2023-03-22T12:09:43.075Z,1.57
2023-03-22T12:10:43.050Z,1.86
2023-03-22T12:11:43.093Z,1.78
2023-03-22T12:12:43.121Z,1.60
2023-03-22T12:13:43.093Z,1.52
2023-03-22T12:14:43.107Z,1.88
2023-03-22T12:15:43.505Z,2.02
2023-03-22T12:16:43.181Z,1.48
2023-03-22T12:17:43.194Z,1.76
2023-03-22T12:18:43.110Z,2.00
2023-03-22T12:19:43.142Z,1.68
2023-03-22T12:20:43.292Z,1.78
2023-03-22T12:21:43.121Z,1.59
2023-03-22T12:22:43.132Z,1.90
2023-03-22T12:23:43.130Z,2.35
2023-03-22T12:24:43.265Z,2.91
2023-03-22T12:26:43.133Z,2.90
2023-03-22T12:27:43.161Z,1.71
2023-03-22T12:28:43.189Z,1.72
2023-03-22T12:29:43.111Z,1.82
2023-03-22T12:30:43.247Z,1.54
2023-03-22T12:31:43.204Z,1.85
2023-03-22T12:32:43.198Z,1.50
2023-03-22T12:33:43.153Z,1.72
2023-03-22T12:34:43.121Z,2.61
2023-03-22T12:35:43.518Z,2.24
2023-03-22T12:36:43.179Z,2.42
2023-03-22T12:37:43.110Z,1.72
2023-03-22T12:38:43.144Z,1.67
2023-03-22T12:39:43.152Z,1.77
2023-03-22T12:40:43.678Z,1.55
2023-03-22T12:41:43.140Z,1.36
2023-03-22T12:42:50.786Z,1.33
2023-03-22T12:43:43.157Z,1.28
2023-03-22T12:44:43.426Z,1.71
2023-03-22T12:45:43.204Z,1.62
2023-03-22T12:46:43.171Z,1.40
2023-03-22T12:47:43.322Z,1.15
2023-03-22T12:48:46.003Z,1.63
2023-03-22T12:49:43.251Z,1.29
2023-03-22T12:50:43.458Z,1.53
2023-03-22T12:51:43.184Z,1.24
2023-03-22T12:52:45.794Z,1.51
2023-03-22T12:53:43.170Z,1.31
2023-03-22T12:54:43.197Z,1.30
2023-03-22T12:55:43.786Z,1.47
2023-03-22T12:56:43.213Z,1.52
2023-03-22T12:57:43.424Z,1.43
2023-03-22T12:58:45.243Z,1.38
2023-03-22T12:59:43.211Z,1.47
2023-03-22T13:00:43.430Z,1.19
2023-03-22T13:01:43.179Z,1.41
2023-03-22T13:02:43.273Z,1.47
2023-03-22T13:03:43.398Z,1.54
2023-03-22T13:04:43.252Z,1.22
2023-03-22T13:05:43.227Z,2.31
2023-03-22T13:06:44.244Z,1.02
2023-03-22T13:07:43.239Z,1.34
2023-03-22T13:08:43.265Z,1.44
2023-03-22T13:09:43.297Z,1.35
2023-03-22T13:10:43.262Z,1.09
2023-03-22T13:11:43.239Z,1.40
2023-03-22T13:12:43.292Z,1.94
2023-03-22T13:13:43.251Z,2.70
2023-03-22T13:14:43.299Z,1.27
2023-03-22T13:15:43.282Z,1.69
2023-03-22T13:17:43.360Z,1.16
2023-03-22T13:18:43.236Z,1.37
2023-03-22T13:19:43.249Z,1.04
2023-03-22T13:20:43.282Z,1.12
2023-03-22T13:21:43.327Z,1.15
2023-03-22T13:22:43.358Z,1.35
2023-03-22T13:23:43.241Z,1.21
2023-03-22T13:24:43.313Z,1.46
2023-03-22T13:25:43.299Z,0.95
2023-03-22T13:27:43.262Z,0.95
2023-03-22T13:28:43.254Z,1.24
2023-03-22T13:29:43.306Z,1.22
2023-03-22T13:30:43.275Z,0.96
2023-03-22T13:31:43.358Z,1.55
2023-03-22T13:32:43.300Z,1.48
2023-03-22T13:33:43.292Z,1.30
2023-03-22T13:34:43.415Z,1.68
2023-03-22T13:35:43.775Z,1.27
2023-03-22T13:36:43.263Z,1.06
2023-03-22T13:37:43.353Z,1.15
2023-03-22T13:38:43.282Z,1.24
2023-03-22T13:39:43.283Z,1.00
2023-03-22T13:40:43.419Z,1.67
2023-03-22T13:41:43.326Z,1.33
2023-03-22T13:42:43.344Z,1.72
2023-03-22T13:43:43.341Z,1.40
2023-03-22T13:44:43.330Z,1.31
2023-03-22T13:45:43.621Z,1.21
2023-03-22T13:46:43.363Z,1.35
2023-03-22T13:47:43.398Z,1.26
2023-03-22T13:49:43.406Z,1.03
2023-03-22T13:50:43.506Z,1.20
2023-03-22T13:51:43.381Z,1.05
2023-03-22T13:52:43.333Z,1.20
2023-03-22T13:53:43.313Z,1.28
2023-03-22T13:54:43.351Z,1.03
2023-03-22T13:55:43.445Z,1.04
2023-03-22T13:56:43.325Z,0.94
2023-03-22T13:57:43.327Z,1.24
2023-03-22T13:59:43.343Z,0.97
2023-03-22T14:00:43.711Z,1.24
2023-03-22T14:01:43.447Z,1.34
2023-03-22T14:02:43.491Z,1.48
2023-03-22T14:04:43.356Z,1.15
2023-03-22T14:05:43.415Z,1.08
2023-03-22T14:06:43.411Z,1.05
2023-03-22T14:07:43.360Z,0.82
2023-03-22T14:08:43.354Z,1.51
2023-03-22T14:09:43.366Z,1.24
2023-03-22T14:10:43.807Z,1.88
2023-03-22T14:11:43.450Z,1.81
2023-03-22T14:12:43.537Z,2.29
2023-03-22T14:13:43.476Z,2.16
2023-03-22T14:14:43.430Z,1.73
2023-03-22T14:15:43.492Z,1.78
2023-03-22T14:16:43.470Z,1.08
2023-03-22T14:17:43.474Z,1.20
2023-03-22T14:18:43.494Z,1.37
2023-03-22T14:19:43.500Z,0.89
2023-03-22T14:20:43.936Z,1.02
2023-03-22T14:21:43.516Z,1.03
2023-03-22T14:52:43.472Z,0.72